createdAt,value
2022-12-11T00:00:57.085Z,39.58
2022-12-11T00:03:24.966Z,38.90
2022-12-11T00:05:54.211Z,39.20
2022-12-11T00:08:22.059Z,46.47
2022-12-11T00:10:51.277Z,38.40
2022-12-11T00:13:20.066Z,41.17
2022-12-11T00:15:50.700Z,40.80
2022-12-11T00:18:18.450Z,42.15
2022-12-11T00:20:49.392Z,38.60
2022-12-11T00:23:18.605Z,41.65
2022-12-11T00:25:47.851Z,43.92
2022-12-11T00:28:18.830Z,43.95
2022-12-11T00:30:46.730Z,43.05
2022-12-11T00:33:15.976Z,41.55
2022-12-11T00:35:45.477Z,51.38
2022-12-11T00:38:16.480Z,45.40
2022-12-11T00:40:46.043Z,45.97
2022-12-11T00:43:14.485Z,40.60
2022-12-11T00:45:43.419Z,45.33
2022-12-11T00:48:12.178Z,42.83
2022-12-11T00:50:40.612Z,44.72
2022-12-11T00:53:09.344Z,41.63
2022-12-11T00:55:38.580Z,40.42
2022-12-11T00:58:08.181Z,44.88
2022-12-11T01:00:36.468Z,45.38
2022-12-11T01:03:04.941Z,41.60
2022-12-11T01:05:33.182Z,41.15
2022-12-11T01:08:01.171Z,46.63
2022-12-11T01:10:29.573Z,40.30
2022-12-11T01:12:59.456Z,44.00
2022-12-11T01:15:30.545Z,40.83
2022-12-11T01:17:58.739Z,43.88
2022-12-11T01:20:28.500Z,40.63
2022-12-11T01:22:58.460Z,45.10
2022-12-11T01:25:26.840Z,39.78
2022-12-11T01:27:56.076Z,44.83
2022-12-11T01:30:26.221Z,47.92
2022-12-11T01:32:55.470Z,45.58
2022-12-11T01:35:23.361Z,44.63
2022-12-11T01:37:51.147Z,44.50
2022-12-11T01:40:20.905Z,43.35
2022-12-11T01:42:49.082Z,41.97
2022-12-11T01:45:33.325Z,43.03
2022-12-11T01:48:07.839Z,50.60
2022-12-11T01:50:40.507Z,49.97
2022-12-11T01:53:11.464Z,46.47
2022-12-11T01:55:47.706Z,48.72
2022-12-11T01:58:17.305Z,49.92
2022-12-11T02:00:46.924Z,48.17
2022-12-11T02:03:16.276Z,48.17
2022-12-11T02:05:47.133Z,56.10
2022-12-11T02:08:15.457Z,47.88
2022-12-11T02:10:53.531Z,51.05
2022-12-11T02:13:31.506Z,50.05
2022-12-11T02:16:07.115Z,42.78
2022-12-11T02:18:44.119Z,47.17
2022-12-11T02:21:26.349Z,49.53
2022-12-11T02:24:16.136Z,43.25
2022-12-11T02:27:17.637Z,46.60
2022-12-11T02:29:52.012Z,47.40
2022-12-11T02:32:30.374Z,49.30
2022-12-11T02:35:09.572Z,46.63
2022-12-11T02:37:43.520Z,47.28
2022-12-11T02:40:14.713Z,51.45
2022-12-11T02:42:45.161Z,47.80
2022-12-11T02:45:15.978Z,45.92
2022-12-11T02:47:47.317Z,41.50
2022-12-11T02:50:21.235Z,43.20
2022-12-11T02:52:53.120Z,50.50
2022-12-11T02:55:21.750Z,49.35
2022-12-11T02:57:53.652Z,40.58
2022-12-11T03:00:40.132Z,47.53
2022-12-11T03:03:10.019Z,48.85
2022-12-11T03:05:43.230Z,46.95
2022-12-11T03:08:11.421Z,42.20
2022-12-11T03:10:41.481Z,44.55
2022-12-11T03:13:13.797Z,50.80
2022-12-11T03:15:54.408Z,44.35
2022-12-11T03:18:34.042Z,41.08
2022-12-11T03:21:11.897Z,43.40
2022-12-11T03:23:54.942Z,48.67
2022-12-11T03:26:26.875Z,43.67
2022-12-11T03:29:06.823Z,50.63
2022-12-11T03:31:45.392Z,45.70
2022-12-11T03:34:20.972Z,48.95
2022-12-11T03:36:50.019Z,37.42
2022-12-11T03:39:22.602Z,46.00
2022-12-11T03:41:52.184Z,46.53
2022-12-11T03:44:22.172Z,45.60
2022-12-11T03:46:53.267Z,47.55
2022-12-11T03:49:24.147Z,49.90
2022-12-11T03:51:55.496Z,46.15
2022-12-11T03:54:24.711Z,43.63
2022-12-11T03:56:56.708Z,48.63
2022-12-11T03:59:31.149Z,45.97
2022-12-11T04:02:03.219Z,51.17
2022-12-11T04:04:34.106Z,42.63
2022-12-11T04:07:02.008Z,49.95
2022-12-11T04:09:30.010Z,43.55
2022-12-11T04:11:57.902Z,44.60
2022-12-11T04:14:43.176Z,49.42
2022-12-11T04:17:12.489Z,46.92
2022-12-11T04:19:57.909Z,45.55
2022-12-11T04:22:45.032Z,48.67
2022-12-11T04:25:13.306Z,45.22
2022-12-11T04:27:50.228Z,48.88
2022-12-11T04:30:33.921Z,41.42
2022-12-11T04:33:03.732Z,50.30
2022-12-11T04:35:31.697Z,47.25
2022-12-11T04:37:59.888Z,44.47
2022-12-11T04:40:28.055Z,42.17
2022-12-11T04:42:56.173Z,47.67
2022-12-11T04:45:23.945Z,40.50
2022-12-11T04:47:54.326Z,47.88
2022-12-11T04:50:24.960Z,53.80
2022-12-11T04:52:56.010Z,48.75
2022-12-11T04:55:25.709Z,50.35
2022-12-11T04:57:58.627Z,47.92
2022-12-11T05:02:54.972Z,45.63
2022-12-11T05:05:24.776Z,51.22
2022-12-11T05:07:52.581Z,46.78
2022-12-11T05:10:20.622Z,44.75
2022-12-11T05:12:48.364Z,52.67
2022-12-11T05:15:17.534Z,44.88
2022-12-11T05:17:49.489Z,43.60
2022-12-11T05:20:23.889Z,43.97
2022-12-11T05:22:54.080Z,46.72
2022-12-11T05:25:24.676Z,48.33
2022-12-11T05:27:52.503Z,49.65
2022-12-11T05:30:20.363Z,46.63
2022-12-11T05:32:49.220Z,44.70
2022-12-11T05:35:17.248Z,46.60
2022-12-11T05:37:46.299Z,42.90
2022-12-11T05:40:15.984Z,40.30
2022-12-11T05:42:43.740Z,46.25
2022-12-11T05:45:12.615Z,40.78
2022-12-11T05:47:40.682Z,43.00
2022-12-11T05:50:09.371Z,46.97
2022-12-11T05:52:37.160Z,46.95
2022-12-11T05:55:05.267Z,52.95
2022-12-11T05:57:34.395Z,46.13
2022-12-11T06:00:02.208Z,44.03
2022-12-11T06:02:30.050Z,42.03
2022-12-11T06:04:58.008Z,50.20
2022-12-11T06:07:26.038Z,44.42
2022-12-11T06:09:53.947Z,45.42
2022-12-11T06:12:21.618Z,50.30
2022-12-11T06:14:50.841Z,43.13
2022-12-11T06:17:19.691Z,40.88
2022-12-11T06:19:47.493Z,42.25
2022-12-11T06:22:15.322Z,44.08
2022-12-11T06:24:43.108Z,43.28
2022-12-11T06:27:11.911Z,46.60
2022-12-11T06:29:39.712Z,48.58
2022-12-11T06:32:10.720Z,50.50
2022-12-11T06:34:38.667Z,50.70
2022-12-11T06:37:07.235Z,46.78
2022-12-11T06:39:37.115Z,46.40
2022-12-11T06:42:30.196Z,47.03
2022-12-11T06:44:59.859Z,47.80
2022-12-11T06:47:32.184Z,48.33
2022-12-11T06:50:05.593Z,42.55
2022-12-11T06:52:33.670Z,55.22
2022-12-11T06:55:02.621Z,44.90
2022-12-11T06:57:31.595Z,44.03
2022-12-11T06:59:59.297Z,48.72
2022-12-11T07:02:34.491Z,46.45
2022-12-11T07:05:03.439Z,45.85
2022-12-11T07:07:40.121Z,50.60
2022-12-11T07:10:11.358Z,45.28
2022-12-11T07:12:40.678Z,44.53
2022-12-11T07:15:12.077Z,46.88
2022-12-11T07:17:45.936Z,41.65
2022-12-11T07:20:13.945Z,42.60
2022-12-11T07:22:46.434Z,44.15
2022-12-11T07:27:44.484Z,46.47
2022-12-11T07:30:13.260Z,44.50
2022-12-11T07:32:44.056Z,45.22
2022-12-11T07:35:13.820Z,50.00
2022-12-11T07:37:42.518Z,46.30
2022-12-11T07:40:16.932Z,40.67
2022-12-11T07:42:53.918Z,48.60
2022-12-11T07:45:24.094Z,47.28
2022-12-11T07:47:56.092Z,45.95
2022-12-11T07:50:28.364Z,49.60
2022-12-11T07:52:56.192Z,45.22
2022-12-11T07:55:23.929Z,48.03
2022-12-11T07:57:51.871Z,47.95
2022-12-11T08:00:20.342Z,54.65
2022-12-11T08:02:48.472Z,48.45
2022-12-11T08:05:18.226Z,53.28
2022-12-11T08:07:50.456Z,52.92
2022-12-11T08:10:18.445Z,45.35
2022-12-11T08:12:46.241Z,45.00
2022-12-11T08:15:15.623Z,48.75
2022-12-11T08:17:43.446Z,53.10
2022-12-11T08:20:12.219Z,50.13
2022-12-11T08:22:41.802Z,51.67
2022-12-11T08:25:10.264Z,50.00
2022-12-11T08:27:42.270Z,49.63
2022-12-11T08:30:11.222Z,40.42
2022-12-11T08:32:39.080Z,43.00
2022-12-11T08:35:08.256Z,48.10
2022-12-11T08:37:36.277Z,50.45
2022-12-11T08:40:06.458Z,44.05
2022-12-11T08:42:34.319Z,49.28
2022-12-11T08:45:11.990Z,41.65
2022-12-11T08:47:40.074Z,48.47
2022-12-11T08:50:08.201Z,48.58
2022-12-11T08:52:36.200Z,40.70
2022-12-11T08:55:06.155Z,49.10
2022-12-11T08:57:39.745Z,47.35
2022-12-11T09:00:12.308Z,45.35
2022-12-11T09:02:40.259Z,41.53
2022-12-11T09:05:10.147Z,45.60
2022-12-11T09:07:39.003Z,48.78
2022-12-11T09:10:10.149Z,36.40
2022-12-11T09:12:42.359Z,48.88
2022-12-11T09:15:11.080Z,45.88
2022-12-11T09:17:52.634Z,47.13
2022-12-11T09:20:23.105Z,52.03
2022-12-11T09:22:53.263Z,45.85
2022-12-11T09:25:31.146Z,41.83
2022-12-11T09:28:04.420Z,49.17
2022-12-11T09:30:32.393Z,48.13
2022-12-11T09:33:06.788Z,50.05
2022-12-11T09:35:36.202Z,52.10
2022-12-11T09:38:06.855Z,55.13
2022-12-11T09:40:45.383Z,49.90
2022-12-11T09:43:33.192Z,50.33
2022-12-11T09:46:08.815Z,54.33
2022-12-11T09:48:44.845Z,50.90
2022-12-11T09:51:49.069Z,47.60
2022-12-11T09:54:19.875Z,53.83
2022-12-11T09:56:58.512Z,46.90
2022-12-11T09:59:38.220Z,48.72
2022-12-11T10:02:25.765Z,45.22
2022-12-11T10:05:04.758Z,50.08
2022-12-11T10:07:37.972Z,50.83
2022-12-11T10:10:16.308Z,46.85
2022-12-11T10:12:55.716Z,47.08
2022-12-11T10:15:36.230Z,44.80
2022-12-11T10:18:09.341Z,48.35
2022-12-11T10:20:42.974Z,44.60
2022-12-11T10:23:18.553Z,40.42
2022-12-11T10:25:51.560Z,50.25
2022-12-11T10:30:59.641Z,41.22
2022-12-11T10:33:34.720Z,39.30
2022-12-11T10:36:39.753Z,36.20
2022-12-11T10:39:18.442Z,36.20
2022-12-11T10:42:02.481Z,33.75
2022-12-11T10:44:35.385Z,33.47
2022-12-11T10:47:10.143Z,35.13
2022-12-11T10:49:40.140Z,27.92
2022-12-11T10:52:20.285Z,34.60
2022-12-11T10:54:56.138Z,33.10
2022-12-11T10:57:35.736Z,33.13
2022-12-11T11:00:10.058Z,30.33
2022-12-11T11:02:42.477Z,34.72
2022-12-11T11:06:05.024Z,32.78
2022-12-11T11:08:44.243Z,36.92
2022-12-11T11:11:23.681Z,30.27
2022-12-11T11:13:51.688Z,31.67
2022-12-11T11:16:24.472Z,34.22
2022-12-11T11:18:59.952Z,39.33
2022-12-11T11:21:30.180Z,28.15
2022-12-11T11:24:03.160Z,33.30
2022-12-11T11:29:37.440Z,31.33
2022-12-11T11:32:38.141Z,30.60
2022-12-11T11:35:22.716Z,32.60
2022-12-11T11:38:09.601Z,30.10
2022-12-11T11:40:43.132Z,29.48
2022-12-11T11:43:19.893Z,29.33
2022-12-11T11:45:54.916Z,30.40
2022-12-11T11:49:00.121Z,30.77
2022-12-11T11:51:52.534Z,26.95
2022-12-11T11:54:30.917Z,31.15
2022-12-11T11:57:09.775Z,29.80
2022-12-11T11:59:47.725Z,35.08
2022-12-11T12:02:30.723Z,26.13
2022-12-11T12:05:09.256Z,33.03
2022-12-11T12:07:44.746Z,26.05
2022-12-11T12:10:23.045Z,29.13
2022-12-11T12:12:59.595Z,30.60
2022-12-11T12:15:38.188Z,27.38
2022-12-11T12:18:16.872Z,28.98
2022-12-11T12:20:56.015Z,37.90
2022-12-11T12:23:55.716Z,36.90
2022-12-11T12:26:31.020Z,30.27
2022-12-11T12:29:18.876Z,31.52
2022-12-11T12:31:59.818Z,32.10
2022-12-11T12:34:41.634Z,32.83
2022-12-11T12:37:17.432Z,33.85
2022-12-11T12:40:07.456Z,35.97
2022-12-11T12:42:49.404Z,33.72
2022-12-11T12:45:32.642Z,39.47
2022-12-11T12:48:05.107Z,29.58
2022-12-11T12:50:43.354Z,32.42
2022-12-11T12:53:17.427Z,31.52
2022-12-11T12:56:48.433Z,33.35
2022-12-11T12:59:34.954Z,36.85
2022-12-11T13:02:11.735Z,38.30
2022-12-11T13:04:56.038Z,33.65
2022-12-11T13:07:39.548Z,35.03
2022-12-11T13:10:53.551Z,39.00
2022-12-11T13:13:38.308Z,34.95
2022-12-11T13:16:26.900Z,30.55
2022-12-11T13:19:04.275Z,35.72
2022-12-11T13:21:48.848Z,35.13
2022-12-11T13:24:34.679Z,32.95
2022-12-11T13:27:40.110Z,29.02
2022-12-11T13:30:46.857Z,36.25
2022-12-11T13:33:25.449Z,33.30
2022-12-11T13:36:33.705Z,35.22
2022-12-11T13:45:03.914Z,28.63
2022-12-11T13:47:46.365Z,30.33
2022-12-11T13:50:31.904Z,41.08
2022-12-11T13:53:06.331Z,37.70
2022-12-11T13:55:43.355Z,41.90
2022-12-11T13:58:18.754Z,36.22
2022-12-11T14:01:09.415Z,33.40
2022-12-11T14:04:06.078Z,34.15
2022-12-11T14:06:38.220Z,34.13
2022-12-11T14:09:20.043Z,34.63
2022-12-11T14:12:25.010Z,39.22
2022-12-11T14:14:59.395Z,42.78
2022-12-11T14:17:38.074Z,38.75
2022-12-11T14:20:10.028Z,35.38
2022-12-11T14:22:38.185Z,36.03
2022-12-11T14:25:24.511Z,35.50
2022-12-11T14:28:04.320Z,35.13
2022-12-11T14:30:36.623Z,39.35
2022-12-11T14:33:12.587Z,34.72
2022-12-11T14:35:46.024Z,33.72
2022-12-11T14:38:19.032Z,37.97
2022-12-11T14:43:31.362Z,34.28
2022-12-11T14:46:03.535Z,34.67
2022-12-11T14:48:37.968Z,38.10
2022-12-11T14:51:09.863Z,45.20
2022-12-11T14:53:48.715Z,40.78
2022-12-11T14:56:24.099Z,37.38
2022-12-11T14:58:58.671Z,41.03
2022-12-11T15:05:12.005Z,36.15
2022-12-11T15:07:55.553Z,34.05
2022-12-11T15:11:09.344Z,32.72
2022-12-11T15:14:06.225Z,35.80
2022-12-11T15:16:50.435Z,32.25
2022-12-11T15:30:18.081Z,61.42
2022-12-11T15:34:54.647Z,36.65
2022-12-11T15:41:09.718Z,37.65
2022-12-11T15:45:01.388Z,34.67
2022-12-11T15:48:04.456Z,40.35
2022-12-11T15:51:13.378Z,40.92
2022-12-11T15:53:53.660Z,41.83
2022-12-11T15:56:36.295Z,41.30
2022-12-11T15:59:18.706Z,39.05
2022-12-11T16:02:13.305Z,40.83
2022-12-11T16:05:11.619Z,41.42
2022-12-11T16:07:52.290Z,41.25
2022-12-11T16:10:35.733Z,42.85
2022-12-11T16:13:20.065Z,40.33
2022-12-11T16:15:53.280Z,42.65
2022-12-11T16:18:36.143Z,38.95
2022-12-11T16:21:09.018Z,42.40
2022-12-11T16:23:52.861Z,40.97
2022-12-11T16:26:53.057Z,39.38
2022-12-11T16:29:25.046Z,45.40
2022-12-11T16:32:00.629Z,45.47
2022-12-11T16:34:43.644Z,41.38
2022-12-11T16:37:11.809Z,45.70
2022-12-11T16:39:46.082Z,46.47
2022-12-11T16:42:29.417Z,42.45
2022-12-11T16:45:05.833Z,42.55
2022-12-11T16:48:03.677Z,47.22
2022-12-11T16:50:32.335Z,42.10
2022-12-11T16:53:03.213Z,39.58
2022-12-11T16:55:35.527Z,53.10
2022-12-11T16:58:08.435Z,89.32
2022-12-11T17:03:10.260Z,49.67
2022-12-11T17:05:41.085Z,65.72
2022-12-11T17:08:15.345Z,41.22
2022-12-11T17:10:43.469Z,45.13
2022-12-11T17:13:22.180Z,49.42
2022-12-11T17:15:54.478Z,41.10
2022-12-11T17:18:25.648Z,37.20
2022-12-11T17:20:54.080Z,41.00
2022-12-11T17:23:21.972Z,45.25
2022-12-11T17:25:50.319Z,44.30
2022-12-11T17:28:24.950Z,51.05
2022-12-11T17:30:53.169Z,44.65
2022-12-11T17:33:21.459Z,43.08
2022-12-11T17:35:52.283Z,45.33
2022-12-11T17:38:20.217Z,47.75
2022-12-11T17:40:48.482Z,45.67
2022-12-11T17:43:23.171Z,42.50
2022-12-11T17:45:55.210Z,43.08
2022-12-11T17:48:24.378Z,43.73
2022-12-11T17:50:53.772Z,47.05
2022-12-11T17:53:22.452Z,43.08
2022-12-11T17:55:52.862Z,48.40
2022-12-11T17:58:25.509Z,44.78
2022-12-11T18:00:55.753Z,45.17
2022-12-11T18:03:23.899Z,48.00
2022-12-11T18:05:54.855Z,42.55
2022-12-11T18:08:25.910Z,44.97
2022-12-11T18:10:55.506Z,50.03
2022-12-11T18:13:25.445Z,57.50
2022-12-11T18:16:01.407Z,61.17
2022-12-11T18:18:33.152Z,57.45
2022-12-11T18:21:03.931Z,63.00
2022-12-11T18:23:40.443Z,56.20
2022-12-11T18:26:08.511Z,56.85
2022-12-11T18:28:37.953Z,83.07
2022-12-11T18:31:13.667Z,96.15
2022-12-11T18:33:48.170Z,51.60
2022-12-11T18:36:35.076Z,62.80
2022-12-11T18:39:04.923Z,50.22
2022-12-11T18:41:43.533Z,50.03
2022-12-11T18:44:25.210Z,55.55
2022-12-11T18:46:53.774Z,69.07
2022-12-11T18:49:22.366Z,67.72
2022-12-11T18:51:50.446Z,89.47
2022-12-11T18:54:21.399Z,82.50
2022-12-11T18:57:04.954Z,69.47
2022-12-11T18:59:34.862Z,59.88
2022-12-11T19:02:26.781Z,57.38
2022-12-11T19:05:46.626Z,59.03
2022-12-11T19:08:23.790Z,54.92
2022-12-11T19:10:54.107Z,51.75
2022-12-11T19:13:27.679Z,51.72
2022-12-11T19:16:03.930Z,52.05
2022-12-11T19:18:51.213Z,52.33
2022-12-11T19:21:25.623Z,96.32
2022-12-11T19:24:14.161Z,68.35
2022-12-11T19:27:13.643Z,65.78
2022-12-11T19:30:13.922Z,59.22
2022-12-11T19:33:49.280Z,53.10
2022-12-11T19:36:26.569Z,55.00
2022-12-11T19:39:13.059Z,46.75
2022-12-11T19:41:54.938Z,47.28
2022-12-11T19:44:48.770Z,46.75
2022-12-11T19:47:25.729Z,45.25
2022-12-11T19:50:21.882Z,46.42
2022-12-11T19:59:14.230Z,47.55
2022-12-11T20:09:30.320Z,70.85
2022-12-11T20:12:05.932Z,67.20
2022-12-11T20:15:10.219Z,57.05
2022-12-11T20:17:58.699Z,53.58
2022-12-11T20:20:49.862Z,52.00
2022-12-11T20:23:26.710Z,48.53
2022-12-11T20:26:31.967Z,47.47
2022-12-11T20:29:57.193Z,51.88
2022-12-11T20:32:10.925Z,46.63
2022-12-11T20:38:39.455Z,58.80
2022-12-11T20:41:29.205Z,53.97
2022-12-11T20:43:57.907Z,48.72
2022-12-11T20:46:27.251Z,45.55
2022-12-11T20:49:12.963Z,51.20
2022-12-11T20:52:06.431Z,57.65
2022-12-11T20:54:41.652Z,52.13
2022-12-11T20:57:32.833Z,60.25
2022-12-11T21:00:19.323Z,62.03
2022-12-11T21:02:59.589Z,51.88
2022-12-11T21:05:40.174Z,49.72
2022-12-11T21:08:13.822Z,53.78
2022-12-11T21:10:55.587Z,51.53
2022-12-11T21:13:32.965Z,61.42
2022-12-11T21:16:11.153Z,66.95
2022-12-11T21:18:47.682Z,62.45
2022-12-11T21:21:25.473Z,72.03
2022-12-11T21:23:56.408Z,62.85
2022-12-11T21:26:24.303Z,57.40
2022-12-11T21:28:56.969Z,49.40
2022-12-11T21:31:25.085Z,48.67
2022-12-11T21:33:56.090Z,48.95
2022-12-11T21:36:27.071Z,49.03
2022-12-11T21:38:55.049Z,50.70
2022-12-11T21:41:28.355Z,46.83
2022-12-11T21:46:42.068Z,44.08
2022-12-11T21:49:17.215Z,44.25
2022-12-11T21:51:49.265Z,44.47
2022-12-11T21:54:28.768Z,41.37
2022-12-11T21:57:09.987Z,41.45
2022-12-11T21:59:42.612Z,42.22
2022-12-11T22:02:20.316Z,40.53
2022-12-11T22:04:53.847Z,45.65
2022-12-11T22:07:30.899Z,38.65
2022-12-11T22:10:03.085Z,38.35
2022-12-11T22:12:39.610Z,37.60
2022-12-11T22:15:11.844Z,37.50
2022-12-11T22:17:42.673Z,39.60
2022-12-11T22:20:11.597Z,36.78
2022-12-11T22:22:43.828Z,47.30
2022-12-11T22:25:11.977Z,40.35
2022-12-11T22:27:40.058Z,41.25
2022-12-11T22:30:13.555Z,42.47
2022-12-11T22:32:41.929Z,38.42
2022-12-11T22:35:11.112Z,42.10
2022-12-11T22:37:39.220Z,39.20
2022-12-11T22:40:08.219Z,33.60
2022-12-11T22:42:47.945Z,36.78
2022-12-11T22:45:17.465Z,42.13
2022-12-11T22:47:45.414Z,42.05
2022-12-11T22:50:14.663Z,38.03
2022-12-11T22:52:42.851Z,35.28
2022-12-11T22:55:12.736Z,36.03
2022-12-11T22:57:43.584Z,32.80
2022-12-11T23:00:17.574Z,38.10
2022-12-11T23:02:45.586Z,34.90
2022-12-11T23:05:17.544Z,37.90
2022-12-11T23:07:45.452Z,34.83
2022-12-11T23:10:13.373Z,36.40
2022-12-11T23:12:44.168Z,30.38
2022-12-11T23:15:15.554Z,31.95
2022-12-11T23:17:53.787Z,37.25
2022-12-11T23:20:23.535Z,34.90
2022-12-11T23:22:51.387Z,36.78
2022-12-11T23:25:35.870Z,33.92
2022-12-11T23:28:06.608Z,30.33
2022-12-11T23:30:37.286Z,37.92
2022-12-11T23:33:09.527Z,32.70
2022-12-11T23:35:40.528Z,35.33
2022-12-11T23:38:11.144Z,31.85
2022-12-11T23:40:39.573Z,31.40
2022-12-11T23:43:09.831Z,30.35
2022-12-11T23:45:39.187Z,33.92
2022-12-11T23:48:08.794Z,32.95
2022-12-11T23:50:36.953Z,36.83
2022-12-11T23:53:09.347Z,32.63
2022-12-11T23:55:46.917Z,31.08
2022-12-11T23:58:17.937Z,35.33
